Time;durP1;ratioP1;P1;durP2;ratioP2;P2;SDS_P1;SDS_P2;PMS_P1;PMS_P2;Temp;Humidity;BMP_temperature;BMP_pressure;BME280_temperature;BME280_humidity;BME280_pressure;Samples;Min_cycle;Max_cycle;Signal;HPM_P1;HPM_P2
2021/07/14 00:00:39;;;;;;;;;;;18.80;99.90;;;;;;5078312;28;19956;-91
2021/07/14 00:03:04;;;;;;;;;;;18.80;99.90;;;;;;5078606;28;19957;-91
2021/07/14 00:05:32;;;;;;;;;;;18.80;99.90;;;;;;5089327;28;20390;-91
2021/07/14 00:07:58;;;;;;;;;;;18.90;99.90;;;;;;5075613;28;19924;-92
2021/07/14 00:10:26;;;;;;;;;;;18.80;99.90;;;;;;5094672;28;19949;-91
2021/07/14 00:23:26;;;;;;;;;;;18.80;99.90;;;;;;5102682;28;19924;-91
2021/07/14 00:25:52;;;;;;;;;;;18.80;99.90;;;;;;5058546;28;20031;-91
2021/07/14 00:28:18;;;;;;;;;;;18.80;99.90;;;;;;5047251;28;19919;-91
2021/07/14 00:30:50;;;;;;;;;;;18.80;99.90;;;;;;5078521;28;20320;-91
2021/07/14 00:33:15;;;;;;;;;;;18.80;99.90;;;;;;5088961;28;19931;-91
2021/07/14 00:35:41;;;;;;;;;;;18.70;99.90;;;;;;5069963;28;19923;-91
2021/07/14 00:38:07;;;;;;;;;;;18.70;99.90;;;;;;5058197;28;19967;-91
2021/07/14 00:40:32;;;;;;;;;;;18.80;99.90;;;;;;5058325;28;19969;-91
2021/07/14 00:42:58;;;;;;;;;;;18.70;99.90;;;;;;5075044;28;19920;-91
2021/07/14 00:45:24;;;;;;;;;;;18.70;99.90;;;;;;5074642;28;19963;-91
2021/07/14 00:47:50;;;;;;;;;;;18.70;99.90;;;;;;5074376;28;19972;-91
2021/07/14 00:50:16;;;;;;;;;;;18.80;99.90;;;;;;5092110;28;19931;-91
2021/07/14 00:52:42;;;;;;;;;;;18.80;99.90;;;;;;5061473;28;20018;-91
2021/07/14 00:55:08;;;;;;;;;;;18.80;99.90;;;;;;5077600;28;20010;-91
2021/07/14 00:57:34;;;;;;;;;;;18.70;99.90;;;;;;5090059;28;19921;-91
2021/07/14 01:00:00;;;;;;;;;;;18.70;99.90;;;;;;5074441;28;19920;-90
2021/07/14 01:02:26;;;;;;;;;;;18.70;99.90;;;;;;5074268;28;19931;-91
2021/07/14 01:04:58;;;;;;;;;;;18.70;99.90;;;;;;5063406;28;19930;-91
2021/07/14 01:07:25;;;;;;;;;;;18.70;99.90;;;;;;5074871;28;19920;-91
2021/07/14 01:09:51;;;;;;;;;;;18.70;99.90;;;;;;5073459;28;19935;-91
2021/07/14 01:12:20;;;;;;;;;;;18.70;99.90;;;;;;5106704;28;19924;-92
2021/07/14 01:14:50;;;;;;;;;;;18.70;99.90;;;;;;5087794;28;20394;-91
2021/07/14 01:17:17;;;;;;;;;;;18.70;99.90;;;;;;5094209;28;19924;-91
2021/07/14 01:20:05;;;;;;;;;;;18.70;99.90;;;;;;5074117;28;20439;-91
2021/07/14 01:22:40;;;;;;;;;;;18.70;99.90;;;;;;5088335;28;19920;-91
2021/07/14 01:25:08;;;;;;;;;;;18.60;99.90;;;;;;5094165;28;20389;-91
2021/07/14 01:27:35;;;;;;;;;;;18.70;99.90;;;;;;5092965;28;19920;-91
2021/07/14 01:30:04;;;;;;;;;;;18.60;99.90;;;;;;5091976;28;19927;-91
2021/07/14 01:32:30;;;;;;;;;;;18.70;99.90;;;;;;5094005;28;19920;-91
2021/07/14 01:34:58;;;;;;;;;;;18.70;99.90;;;;;;5076881;28;19935;-92
2021/07/14 01:37:24;;;;;;;;;;;18.70;99.90;;;;;;5094000;28;19954;-91
2021/07/14 01:39:51;;;;;;;;;;;18.70;99.90;;;;;;5076543;28;20081;-91
2021/07/14 01:42:19;;;;;;;;;;;18.70;99.90;;;;;;5093869;28;19924;-91
2021/07/14 01:44:45;;;;;;;;;;;18.70;99.90;;;;;;5092727;28;19932;-91
2021/07/14 01:47:11;;;;;;;;;;;18.60;99.90;;;;;;5093607;28;19924;-92
2021/07/14 01:49:38;;;;;;;;;;;18.60;99.90;;;;;;5093302;28;19969;-91
2021/07/14 01:52:06;;;;;;;;;;;18.60;99.90;;;;;;5073227;28;20406;-91
2021/07/14 01:54:32;;;;;;;;;;;18.60;99.90;;;;;;5072792;28;19927;-91
2021/07/14 01:56:58;;;;;;;;;;;18.60;99.90;;;;;;5080738;28;19973;-91
2021/07/14 01:59:25;;;;;;;;;;;18.60;99.90;;;;;;5076887;28;19924;-91
2021/07/14 02:01:52;;;;;;;;;;;18.60;99.90;;;;;;5086103;28;19923;-91
2021/07/14 02:04:30;;;;;;;;;;;18.60;99.90;;;;;;5072914;28;19924;-91
2021/07/14 02:06:57;;;;;;;;;;;18.60;99.90;;;;;;5058231;28;20338;-91
2021/07/14 02:09:23;;;;;;;;;;;18.50;99.90;;;;;;5073272;28;19927;-91
2021/07/14 02:11:51;;;;;;;;;;;18.60;99.90;;;;;;5072656;28;19924;-91
2021/07/14 02:14:19;;;;;;;;;;;18.60;99.90;;;;;;5098448;28;20936;-91
2021/07/14 02:16:45;;;;;;;;;;;18.50;99.90;;;;;;5110207;28;19924;-90
2021/07/14 02:19:13;;;;;;;;;;;18.60;99.90;;;;;;5085101;28;19954;-91
2021/07/14 02:21:39;;;;;;;;;;;18.60;99.90;;;;;;5073020;28;19924;-91
2021/07/14 02:24:05;;;;;;;;;;;18.60;99.90;;;;;;5071856;28;19924;-91
2021/07/14 02:26:31;;;;;;;;;;;18.60;99.90;;;;;;5072284;28;19927;-91
2021/07/14 02:28:57;;;;;;;;;;;18.60;99.90;;;;;;5040018;28;19924;-91
2021/07/14 02:31:23;;;;;;;;;;;18.60;99.90;;;;;;5090684;28;20332;-91
2021/07/14 02:33:49;;;;;;;;;;;18.50;99.90;;;;;;5072514;28;19969;-91
2021/07/14 02:36:16;;;;;;;;;;;18.60;99.90;;;;;;5077083;28;19920;-91
2021/07/14 02:38:48;;;;;;;;;;;18.50;99.90;;;;;;5075924;28;20019;-91
2021/07/14 02:41:22;;;;;;;;;;;18.60;99.90;;;;;;5073447;28;19972;-92
2021/07/14 02:43:51;;;;;;;;;;;18.60;99.90;;;;;;5072624;28;19931;-91
2021/07/14 02:46:23;;;;;;;;;;;18.60;99.90;;;;;;5072785;28;19924;-91
2021/07/14 02:48:53;;;;;;;;;;;18.60;99.90;;;;;;5073595;28;19927;-92
2021/07/14 02:51:19;;;;;;;;;;;18.60;99.90;;;;;;5077408;28;19957;-91
2021/07/14 02:53:50;;;;;;;;;;;18.50;99.90;;;;;;5087977;28;20310;-91
2021/07/14 02:56:19;;;;;;;;;;;18.60;99.90;;;;;;5082469;28;19923;-91
2021/07/14 02:58:48;;;;;;;;;;;18.60;99.90;;;;;;5092355;28;19920;-91
2021/07/14 03:01:14;;;;;;;;;;;18.50;99.90;;;;;;5082930;28;20018;-91
2021/07/14 03:03:41;;;;;;;;;;;18.50;99.90;;;;;;5072314;28;19931;-91
2021/07/14 03:06:07;;;;;;;;;;;18.50;99.90;;;;;;5071556;28;20378;-91
2021/07/14 03:08:33;;;;;;;;;;;18.50;99.90;;;;;;5061735;28;19988;-91
2021/07/14 03:10:59;;;;;;;;;;;18.50;99.90;;;;;;5081452;28;20378;-91
2021/07/14 03:13:26;;;;;;;;;;;18.50;99.90;;;;;;5109826;28;20382;-91
2021/07/14 03:15:53;;;;;;;;;;;18.50;99.90;;;;;;5110498;28;20271;-91
2021/07/14 03:18:21;;;;;;;;;;;18.50;99.90;;;;;;5074768;28;20263;-91
2021/07/14 03:20:46;;;;;;;;;;;18.50;99.90;;;;;;5089660;28;19935;-91
2021/07/14 03:23:14;;;;;;;;;;;18.50;99.90;;;;;;5098126;28;20274;-91
2021/07/14 03:25:41;;;;;;;;;;;18.50;99.90;;;;;;5091230;28;20344;-90
2021/07/14 03:28:07;;;;;;;;;;;18.50;99.90;;;;;;5075550;28;19924;-92
2021/07/14 03:30:35;;;;;;;;;;;18.50;99.90;;;;;;5059403;28;20011;-91
2021/07/14 03:33:01;;;;;;;;;;;18.40;99.90;;;;;;5075380;28;19946;-91
2021/07/14 03:35:26;;;;;;;;;;;18.50;99.90;;;;;;5108760;28;19924;-91
2021/07/14 03:37:53;;;;;;;;;;;18.50;99.90;;;;;;5096381;28;19967;-91
2021/07/14 03:40:19;;;;;;;;;;;18.50;99.90;;;;;;5095925;28;19924;-91
2021/07/14 03:42:50;;;;;;;;;;;18.50;99.90;;;;;;5096565;28;19993;-91
2021/07/14 03:45:16;;;;;;;;;;;18.50;99.90;;;;;;5090374;28;19934;-91
2021/07/14 03:47:42;;;;;;;;;;;18.40;99.90;;;;;;5075926;28;20015;-91
2021/07/14 03:50:09;;;;;;;;;;;18.50;99.90;;;;;;5076232;28;19962;-90
2021/07/14 03:52:35;;;;;;;;;;;18.50;99.90;;;;;;5074023;28;19926;-91
2021/07/14 03:55:02;;;;;;;;;;;18.50;99.90;;;;;;5094077;28;19963;-91
2021/07/14 03:57:29;;;;;;;;;;;18.50;99.90;;;;;;5113329;28;19924;-91
2021/07/14 03:59:55;;;;;;;;;;;18.50;99.90;;;;;;5075163;28;19928;-91
2021/07/14 04:02:22;;;;;;;;;;;18.50;99.90;;;;;;5075702;28;19969;-91
2021/07/14 04:04:48;;;;;;;;;;;18.50;99.90;;;;;;5093065;28;19920;-91
2021/07/14 04:07:16;;;;;;;;;;;18.50;99.90;;;;;;5075370;28;19927;-91
2021/07/14 04:09:43;;;;;;;;;;;18.50;99.90;;;;;;5093279;28;19924;-92
2021/07/14 04:12:08;;;;;;;;;;;18.50;99.90;;;;;;5067210;28;19974;-91
2021/07/14 04:14:34;;;;;;;;;;;18.50;99.90;;;;;;5058808;28;19943;-91
2021/07/14 04:17:00;;;;;;;;;;;18.50;99.90;;;;;;5075467;28;19924;-91
2021/07/14 04:19:26;;;;;;;;;;;18.50;99.90;;;;;;5075435;28;19977;-91
2021/07/14 04:21:51;;;;;;;;;;;18.60;99.90;;;;;;5060440;28;19927;-91
2021/07/14 04:24:18;;;;;;;;;;;18.60;99.90;;;;;;5088749;28;20363;-91
2021/07/14 04:26:44;;;;;;;;;;;18.50;99.90;;;;;;5074890;28;19946;-91
2021/07/14 04:29:10;;;;;;;;;;;18.60;99.90;;;;;;5058430;28;20314;-91
2021/07/14 04:31:36;;;;;;;;;;;18.60;99.90;;;;;;5074950;28;19924;-91
2021/07/14 04:34:03;;;;;;;;;;;18.60;99.90;;;;;;5069071;28;20026;-91
2021/07/14 04:36:29;;;;;;;;;;;18.60;99.90;;;;;;5094966;28;20282;-91
2021/07/14 04:38:56;;;;;;;;;;;18.60;99.90;;;;;;5091771;28;19920;-92
2021/07/14 04:41:21;;;;;;;;;;;18.60;99.90;;;;;;5074414;28;20046;-91
2021/07/14 04:43:47;;;;;;;;;;;18.60;99.90;;;;;;5058032;28;20010;-91
2021/07/14 04:46:13;;;;;;;;;;;18.60;99.90;;;;;;5084928;28;19930;-90
2021/07/14 04:48:38;;;;;;;;;;;18.60;99.90;;;;;;5077570;28;19924;-91
2021/07/14 04:51:04;;;;;;;;;;;18.60;99.90;;;;;;5058442;28;20283;-92
2021/07/14 04:53:30;;;;;;;;;;;18.60;99.90;;;;;;5079292;28;20370;-91
2021/07/14 04:55:57;;;;;;;;;;;18.60;99.90;;;;;;5078428;28;19924;-92
2021/07/14 04:58:23;;;;;;;;;;;18.60;99.90;;;;;;5091072;28;19964;-91
2021/07/14 05:00:49;;;;;;;;;;;18.60;99.90;;;;;;5074183;28;19974;-91
2021/07/14 05:03:14;;;;;;;;;;;18.70;99.90;;;;;;5057744;28;20337;-91
2021/07/14 05:05:40;;;;;;;;;;;18.70;99.90;;;;;;5109668;28;19923;-91
2021/07/14 05:08:06;;;;;;;;;;;18.60;99.90;;;;;;5094628;28;19972;-91
2021/07/14 05:10:32;;;;;;;;;;;18.60;99.90;;;;;;5074737;28;20007;-91
2021/07/14 05:12:58;;;;;;;;;;;18.70;99.90;;;;;;5091850;28;20077;-91
2021/07/14 05:15:24;;;;;;;;;;;18.70;99.90;;;;;;5074156;28;19931;-91
2021/07/14 05:17:49;;;;;;;;;;;18.70;99.90;;;;;;5073930;28;20423;-91
2021/07/14 05:20:17;;;;;;;;;;;18.70;99.90;;;;;;5074382;28;20041;-91
2021/07/14 05:22:43;;;;;;;;;;;18.70;99.90;;;;;;5091909;28;20261;-91
2021/07/14 05:25:10;;;;;;;;;;;18.70;99.90;;;;;;5094471;28;20386;-91
2021/07/14 05:27:36;;;;;;;;;;;18.80;99.90;;;;;;5076975;28;20340;-91
2021/07/14 05:30:06;;;;;;;;;;;18.80;99.90;;;;;;5058131;28;19950;-91
2021/07/14 05:32:33;;;;;;;;;;;18.80;99.90;;;;;;5073482;28;20409;-91
2021/07/14 05:34:59;;;;;;;;;;;18.80;99.90;;;;;;5073972;28;19924;-91
2021/07/14 05:37:24;;;;;;;;;;;18.80;99.90;;;;;;5073621;28;20337;-91
2021/07/14 05:39:50;;;;;;;;;;;18.80;99.90;;;;;;5088049;28;19978;-91
2021/07/14 05:42:16;;;;;;;;;;;18.90;99.90;;;;;;5088215;28;19969;-92
2021/07/14 05:44:41;;;;;;;;;;;18.80;99.90;;;;;;5091476;28;19931;-91
2021/07/14 05:47:07;;;;;;;;;;;18.90;99.90;;;;;;5056228;28;19950;-91
2021/07/14 05:49:35;;;;;;;;;;;18.90;99.90;;;;;;5073462;28;20026;-91
2021/07/14 05:52:01;;;;;;;;;;;18.90;99.90;;;;;;5086687;28;20430;-91
2021/07/14 05:54:26;;;;;;;;;;;18.90;99.90;;;;;;5058827;28;20307;-91
2021/07/14 05:56:52;;;;;;;;;;;18.90;99.90;;;;;;5072905;28;20298;-91
2021/07/14 05:59:18;;;;;;;;;;;18.90;99.90;;;;;;5074480;28;19931;-91
2021/07/14 06:01:43;;;;;;;;;;;18.90;99.90;;;;;;5056666;28;20019;-91
2021/07/14 06:04:09;;;;;;;;;;;18.90;99.90;;;;;;5106982;28;19924;-92
2021/07/14 06:06:35;;;;;;;;;;;18.90;99.90;;;;;;5074099;28;19927;-91
2021/07/14 06:09:03;;;;;;;;;;;18.90;99.90;;;;;;5075416;28;19923;-91
2021/07/14 06:11:29;;;;;;;;;;;18.90;99.90;;;;;;5109874;28;19972;-95
2021/07/14 06:13:55;;;;;;;;;;;19.00;99.90;;;;;;5056994;28;20010;-93
2021/07/14 06:16:20;;;;;;;;;;;19.00;99.90;;;;;;5089821;28;19939;-93
2021/07/14 06:18:46;;;;;;;;;;;19.00;99.90;;;;;;5074386;28;19935;-92
2021/07/14 06:21:12;;;;;;;;;;;19.00;99.90;;;;;;5093125;28;19924;-92
2021/07/14 06:23:38;;;;;;;;;;;19.10;99.90;;;;;;5099598;28;19924;-92
2021/07/14 06:26:04;;;;;;;;;;;19.10;99.90;;;;;;5056492;28;19973;-91
2021/07/14 06:28:30;;;;;;;;;;;19.20;99.90;;;;;;5056084;28;19920;-92
2021/07/14 06:30:56;;;;;;;;;;;19.10;99.90;;;;;;5055401;28;19939;-89
2021/07/14 06:33:22;;;;;;;;;;;19.10;99.90;;;;;;5072271;28;20301;-88
2021/07/14 06:35:51;;;;;;;;;;;19.10;99.90;;;;;;5073831;28;20363;-89
2021/07/14 06:38:17;;;;;;;;;;;19.20;99.90;;;;;;5084021;28;20328;-87
2021/07/14 06:40:43;;;;;;;;;;;19.20;99.90;;;;;;5056713;28;19928;-91
2021/07/14 06:43:14;;;;;;;;;;;19.20;99.90;;;;;;5039622;28;19920;-93
2021/07/14 06:45:40;;;;;;;;;;;19.20;99.90;;;;;;5090136;28;20007;-89
2021/07/14 06:48:07;;;;;;;;;;;19.20;99.90;;;;;;5072854;28;20957;-89
2021/07/14 06:50:33;;;;;;;;;;;19.30;99.90;;;;;;5072154;28;19920;-89
2021/07/14 06:53:02;;;;;;;;;;;19.30;99.90;;;;;;5090986;28;19920;-90
2021/07/14 06:55:28;;;;;;;;;;;19.30;99.90;;;;;;5092095;28;19920;-91
2021/07/14 06:57:53;;;;;;;;;;;19.30;99.90;;;;;;5066070;28;20269;-89
2021/07/14 07:00:19;;;;;;;;;;;19.20;99.90;;;;;;5088100;28;19951;-88
2021/07/14 07:02:45;;;;;;;;;;;19.30;99.90;;;;;;5101301;28;19924;-88
2021/07/14 07:05:11;;;;;;;;;;;19.30;99.90;;;;;;5080893;28;20379;-87
2021/07/14 07:07:37;;;;;;;;;;;19.40;99.90;;;;;;5094033;28;19981;-87
2021/07/14 07:10:03;;;;;;;;;;;19.40;99.90;;;;;;5070013;28;19924;-87
2021/07/14 07:12:29;;;;;;;;;;;19.40;99.90;;;;;;5095080;28;20016;-87
2021/07/14 07:14:55;;;;;;;;;;;19.40;99.90;;;;;;5061105;28;19924;-87
2021/07/14 07:17:20;;;;;;;;;;;19.40;99.90;;;;;;5105710;28;19924;-87
2021/07/14 07:19:46;;;;;;;;;;;19.50;99.90;;;;;;5074091;28;20501;-87
2021/07/14 07:22:12;;;;;;;;;;;19.50;99.90;;;;;;5067389;28;20043;-88
2021/07/14 07:24:38;;;;;;;;;;;19.50;99.90;;;;;;5076797;28;19924;-88
2021/07/14 07:27:07;;;;;;;;;;;19.50;99.90;;;;;;5103566;28;19931;-88
2021/07/14 07:29:33;;;;;;;;;;;19.50;99.90;;;;;;5089273;28;20473;-87
2021/07/14 07:31:58;;;;;;;;;;;19.50;99.90;;;;;;5110185;28;20018;-87
2021/07/14 07:34:24;;;;;;;;;;;19.50;99.90;;;;;;5094636;28;19958;-87
2021/07/14 07:36:50;;;;;;;;;;;19.60;99.90;;;;;;5078879;28;19927;-87
2021/07/14 07:39:15;;;;;;;;;;;19.60;99.90;;;;;;5100765;28;19932;-86
2021/07/14 07:41:42;;;;;;;;;;;19.60;99.90;;;;;;5087801;28;19956;-87
2021/07/14 07:44:08;;;;;;;;;;;19.60;99.90;;;;;;5087200;28;20257;-88
2021/07/14 07:46:34;;;;;;;;;;;19.70;99.90;;;;;;5073825;28;19920;-88
2021/07/14 07:49:00;;;;;;;;;;;19.70;99.90;;;;;;5086845;28;19920;-88
2021/07/14 07:51:26;;;;;;;;;;;19.70;99.90;;;;;;5090043;28;19973;-87
2021/07/14 07:53:53;;;;;;;;;;;19.70;99.90;;;;;;5068846;28;19924;-88
2021/07/14 07:56:19;;;;;;;;;;;19.70;99.90;;;;;;5082214;28;19923;-88
2021/07/14 07:58:44;;;;;;;;;;;19.80;99.90;;;;;;5075725;28;19931;-88
2021/07/14 08:01:11;;;;;;;;;;;19.80;99.90;;;;;;5070083;28;20334;-88
2021/07/14 08:03:36;;;;;;;;;;;19.80;99.90;;;;;;5101090;28;20002;-88
2021/07/14 08:06:02;;;;;;;;;;;19.90;99.90;;;;;;5059019;28;20014;-90
2021/07/14 08:08:28;;;;;;;;;;;19.90;99.90;;;;;;5087295;28;19973;-91
2021/07/14 08:10:56;;;;;;;;;;;20.00;99.90;;;;;;5058869;28;19924;-92
2021/07/14 08:13:22;;;;;;;;;;;20.00;99.90;;;;;;5059259;28;20010;-90
2021/07/14 08:15:48;;;;;;;;;;;20.00;99.90;;;;;;5080150;28;20374;-91
2021/07/14 08:18:15;;;;;;;;;;;20.00;99.90;;;;;;5094091;28;19976;-92
2021/07/14 08:20:41;;;;;;;;;;;20.00;99.90;;;;;;5092400;28;19931;-90
2021/07/14 08:23:06;;;;;;;;;;;20.00;99.90;;;;;;5087538;28;19923;-91
2021/07/14 08:25:32;;;;;;;;;;;20.00;99.90;;;;;;5090590;28;20272;-92
2021/07/14 08:27:58;;;;;;;;;;;20.00;99.90;;;;;;5074388;28;19935;-91
2021/07/14 08:30:24;;;;;;;;;;;20.10;99.90;;;;;;5058124;28;19924;-91
2021/07/14 08:32:51;;;;;;;;;;;20.10;99.90;;;;;;5075714;28;19963;-92
2021/07/14 08:35:17;;;;;;;;;;;20.10;99.90;;;;;;5074873;28;19924;-91
2021/07/14 08:37:42;;;;;;;;;;;20.10;99.90;;;;;;5075138;28;20345;-91
2021/07/14 08:40:08;;;;;;;;;;;20.20;99.90;;;;;;5075043;28;19924;-91
2021/07/14 08:42:36;;;;;;;;;;;20.20;99.90;;;;;;5074660;28;19924;-91
2021/07/14 08:45:04;;;;;;;;;;;20.30;99.90;;;;;;5091581;28;20027;-91
2021/07/14 08:47:30;;;;;;;;;;;20.30;99.90;;;;;;5084870;28;19969;-91
2021/07/14 08:49:56;;;;;;;;;;;20.30;99.90;;;;;;5074288;28;20336;-91
2021/07/14 08:52:23;;;;;;;;;;;20.30;99.90;;;;;;5074437;28;19920;-91
2021/07/14 08:54:48;;;;;;;;;;;20.30;99.90;;;;;;5074349;28;20299;-92
2021/07/14 08:57:15;;;;;;;;;;;20.30;99.90;;;;;;5068138;28;19924;-91
2021/07/14 08:59:41;;;;;;;;;;;20.20;99.90;;;;;;5082075;28;20914;-91
2021/07/14 09:02:08;;;;;;;;;;;20.20;99.90;;;;;;5057794;28;20307;-91
2021/07/14 09:04:35;;;;;;;;;;;20.20;99.90;;;;;;5085038;28;19928;-91
2021/07/14 09:07:01;;;;;;;;;;;20.20;99.90;;;;;;5070079;28;19920;-91
2021/07/14 09:09:27;;;;;;;;;;;20.10;99.90;;;;;;5058931;28;19924;-91
2021/07/14 09:11:54;;;;;;;;;;;20.10;99.90;;;;;;5075104;28;19984;-89
2021/07/14 09:14:34;;;;;;;;;;;20.10;99.90;;;;;;5102293;28;19932;-89
2021/07/14 09:17:00;;;;;;;;;;;20.10;99.90;;;;;;5074118;28;19931;-89
2021/07/14 09:19:28;;;;;;;;;;;20.00;99.90;;;;;;5089469;28;20022;-91
2021/07/14 09:21:54;;;;;;;;;;;20.00;99.90;;;;;;5111220;28;20020;-90
2021/07/14 09:24:40;;;;;;;;;;;20.00;99.90;;;;;;5079418;28;19989;-88
2021/07/14 09:27:14;;;;;;;;;;;20.00;99.90;;;;;;5064169;28;19923;-88
2021/07/14 09:29:41;;;;;;;;;;;19.90;99.90;;;;;;5066070;28;20024;-88
2021/07/14 09:32:08;;;;;;;;;;;19.90;99.90;;;;;;5088514;28;20380;-89
2021/07/14 09:34:33;;;;;;;;;;;19.80;99.90;;;;;;5071952;28;20383;-88
2021/07/14 09:37:02;;;;;;;;;;;19.80;99.90;;;;;;5055710;28;19920;-88
2021/07/14 09:39:28;;;;;;;;;;;19.80;99.90;;;;;;5056399;28;19997;-88
2021/07/14 09:42:01;;;;;;;;;;;19.80;99.90;;;;;;5055949;28;19951;-88
2021/07/14 09:44:27;;;;;;;;;;;19.80;99.90;;;;;;5090034;28;19924;-88
2021/07/14 09:47:09;;;;;;;;;;;19.80;99.90;;;;;;5109471;28;19973;-88
2021/07/14 09:49:35;;;;;;;;;;;19.80;99.90;;;;;;5091971;28;19924;-88
2021/07/14 09:52:11;;;;;;;;;;;19.80;99.90;;;;;;5099558;28;19985;-88
2021/07/14 09:54:37;;;;;;;;;;;19.80;99.90;;;;;;5086668;28;19930;-89
2021/07/14 09:57:12;;;;;;;;;;;19.80;99.90;;;;;;5071997;28;20006;-88
2021/07/14 09:59:38;;;;;;;;;;;19.80;99.90;;;;;;5096293;28;19924;-88
2021/07/14 10:02:04;;;;;;;;;;;19.80;99.90;;;;;;5108646;28;19934;-89
2021/07/14 10:04:34;;;;;;;;;;;19.80;99.90;;;;;;5069420;28;20387;-91
2021/07/14 10:07:04;;;;;;;;;;;19.80;99.90;;;;;;5092502;28;20375;-89
2021/07/14 10:09:30;;;;;;;;;;;19.80;99.90;;;;;;5084608;28;20401;-89
2021/07/14 10:12:15;;;;;;;;;;;19.80;99.90;;;;;;5065431;28;19962;-88
2021/07/14 10:14:41;;;;;;;;;;;19.80;99.90;;;;;;5051238;28;20031;-90
2021/07/14 10:17:06;;;;;;;;;;;19.80;99.90;;;;;;5038530;28;20414;-89
2021/07/14 10:19:32;;;;;;;;;;;19.80;99.90;;;;;;5069497;28;19928;-89
2021/07/14 10:21:59;;;;;;;;;;;19.90;99.90;;;;;;5068708;28;19921;-89
2021/07/14 10:24:25;;;;;;;;;;;19.90;99.90;;;;;;5047930;28;19921;-93
2021/07/14 10:26:54;;;;;;;;;;;19.90;99.90;;;;;;5067333;28;19927;-91
2021/07/14 10:29:20;;;;;;;;;;;20.00;99.90;;;;;;5052942;28;19946;-92
2021/07/14 10:31:47;;;;;;;;;;;20.00;99.90;;;;;;5069454;28;19934;-91
2021/07/14 10:34:15;;;;;;;;;;;20.00;99.90;;;;;;5083642;28;19927;-92
2021/07/14 10:36:41;;;;;;;;;;;20.00;99.90;;;;;;5068331;28;19921;-92
2021/07/14 10:39:09;;;;;;;;;;;20.10;99.90;;;;;;5069600;28;19963;-91
2021/07/14 10:41:35;;;;;;;;;;;20.10;99.90;;;;;;5069327;28;20308;-92
2021/07/14 10:44:01;;;;;;;;;;;20.10;99.90;;;;;;5042619;28;19932;-92
2021/07/14 10:46:29;;;;;;;;;;;20.20;99.90;;;;;;5049590;28;19925;-92
2021/07/14 10:48:56;;;;;;;;;;;20.10;99.90;;;;;;5059958;28;19928;-92
2021/07/14 10:51:22;;;;;;;;;;;20.20;99.90;;;;;;5065562;28;19920;-91
2021/07/14 10:53:59;;;;;;;;;;;20.30;99.90;;;;;;5049422;28;19921;-91
2021/07/14 10:56:27;;;;;;;;;;;20.30;99.90;;;;;;5050296;28;19978;-92
2021/07/14 10:58:53;;;;;;;;;;;20.30;99.90;;;;;;5064144;28;19924;-92
2021/07/14 11:01:37;;;;;;;;;;;20.30;99.90;;;;;;5069570;28;19975;-92
2021/07/14 11:04:04;;;;;;;;;;;20.30;99.90;;;;;;5068802;28;19924;-92
2021/07/14 11:06:30;;;;;;;;;;;20.40;99.90;;;;;;5069157;28;19924;-91
2021/07/14 11:08:56;;;;;;;;;;;20.40;99.90;;;;;;5086241;28;19932;-91
2021/07/14 11:11:23;;;;;;;;;;;20.40;99.90;;;;;;5068832;28;20364;-92
2021/07/14 11:14:19;;;;;;;;;;;20.40;99.90;;;;;;5067989;28;22365;-92
2021/07/14 11:16:56;;;;;;;;;;;20.40;99.90;;;;;;5084441;28;20303;-92
2021/07/14 11:19:22;;;;;;;;;;;20.40;99.90;;;;;;5068514;28;19929;-92
2021/07/14 11:21:59;;;;;;;;;;;20.50;99.90;;;;;;5068499;28;19920;-92
2021/07/14 11:24:45;;;;;;;;;;;20.50;99.90;;;;;;5068613;28;20299;-92
2021/07/14 11:27:19;;;;;;;;;;;20.50;99.90;;;;;;5070060;28;20337;-92
2021/07/14 11:29:46;;;;;;;;;;;20.50;99.90;;;;;;5085413;28;19969;-92
2021/07/14 11:32:31;;;;;;;;;;;20.50;99.90;;;;;;5068890;28;19934;-92
2021/07/14 11:34:57;;;;;;;;;;;20.50;99.90;;;;;;5085157;28;19920;-91
2021/07/14 11:37:30;;;;;;;;;;;20.50;99.90;;;;;;5051883;28;20011;-91
2021/07/14 11:40:15;;;;;;;;;;;20.50;99.90;;;;;;5068749;28;19947;-92
2021/07/14 11:42:50;;;;;;;;;;;20.60;99.90;;;;;;5068107;28;19929;-92
2021/07/14 11:45:16;;;;;;;;;;;20.70;99.90;;;;;;5068725;28;19924;-92
2021/07/14 11:47:42;;;;;;;;;;;20.80;99.90;;;;;;5068466;28;19924;-92
2021/07/14 11:50:10;;;;;;;;;;;20.90;99.90;;;;;;5068489;28;19931;-92
2021/07/14 11:52:54;;;;;;;;;;;21.00;99.90;;;;;;5054177;28;20003;-92
2021/07/14 11:55:22;;;;;;;;;;;21.10;99.90;;;;;;5051074;28;19990;-92
2021/07/14 11:57:52;;;;;;;;;;;21.10;99.90;;;;;;5071998;28;19924;-91
2021/07/14 12:00:30;;;;;;;;;;;21.10;99.90;;;;;;5072166;28;19924;-92
2021/07/14 12:03:03;;;;;;;;;;;21.10;99.90;;;;;;5071983;28;19981;-92
2021/07/14 12:05:32;;;;;;;;;;;21.10;99.90;;;;;;5072000;28;20397;-91
2021/07/14 12:08:07;;;;;;;;;;;21.10;99.90;;;;;;5071586;28;20447;-92
2021/07/14 12:10:33;;;;;;;;;;;21.20;99.90;;;;;;5071948;28;19927;-92
2021/07/14 12:13:00;;;;;;;;;;;21.30;99.90;;;;;;5069815;28;20010;-93
2021/07/14 12:15:26;;;;;;;;;;;21.40;99.90;;;;;;5055454;28;20347;-92
2021/07/14 12:17:51;;;;;;;;;;;21.50;99.90;;;;;;5038562;28;19924;-92
2021/07/14 12:20:17;;;;;;;;;;;21.50;99.90;;;;;;5052755;28;20022;-92
2021/07/14 12:22:43;;;;;;;;;;;21.70;99.90;;;;;;5055203;28;19929;-92
2021/07/14 12:25:12;;;;;;;;;;;21.70;99.90;;;;;;5054730;28;19927;-92
2021/07/14 12:27:39;;;;;;;;;;;21.70;99.90;;;;;;5055281;28;19924;-92
2021/07/14 12:30:09;;;;;;;;;;;21.80;99.90;;;;;;5043320;28;20012;-92
2021/07/14 12:32:35;;;;;;;;;;;21.90;99.90;;;;;;5038515;28;19925;-92
2021/07/14 12:35:09;;;;;;;;;;;22.00;99.90;;;;;;5072637;28;20291;-92
2021/07/14 12:37:39;;;;;;;;;;;22.00;99.90;;;;;;5071726;28;20011;-91
2021/07/14 12:40:05;;;;;;;;;;;22.10;99.90;;;;;;5071330;28;19928;-92
2021/07/14 12:42:31;;;;;;;;;;;22.20;99.90;;;;;;5072326;28;19925;-92
2021/07/14 12:44:56;;;;;;;;;;;22.20;99.90;;;;;;5071122;28;19929;-93
2021/07/14 12:47:22;;;;;;;;;;;22.20;99.90;;;;;;5070360;28;19931;-92
2021/07/14 12:49:49;;;;;;;;;;;22.20;99.90;;;;;;5051200;28;19931;-91
2021/07/14 12:52:16;;;;;;;;;;;22.30;99.90;;;;;;5046876;28;19928;-92
2021/07/14 12:54:43;;;;;;;;;;;22.40;99.90;;;;;;5071039;28;19921;-92
2021/07/14 12:57:18;;;;;;;;;;;22.40;99.90;;;;;;5070888;28;20023;-92
2021/07/14 13:00:04;;;;;;;;;;;22.40;99.90;;;;;;5070801;28;20338;-92
2021/07/14 13:02:37;;;;;;;;;;;22.50;99.90;;;;;;5064262;28;19932;-91
2021/07/14 13:05:03;;;;;;;;;;;22.50;99.90;;;;;;5051300;28;19925;-92
2021/07/14 13:07:30;;;;;;;;;;;22.50;99.90;;;;;;5050963;28;19923;-92
2021/07/14 13:09:58;;;;;;;;;;;22.50;99.90;;;;;;5050845;28;19932;-92
2021/07/14 13:12:24;;;;;;;;;;;22.50;99.90;;;;;;5064224;28;19928;-92
2021/07/14 13:14:50;;;;;;;;;;;22.50;99.90;;;;;;5087299;28;19924;-92
2021/07/14 13:17:29;;;;;;;;;;;22.60;99.90;;;;;;5070506;28;19920;-92
2021/07/14 13:20:01;;;;;;;;;;;22.60;99.90;;;;;;5070422;28;20346;-92
2021/07/14 13:22:27;;;;;;;;;;;22.60;99.90;;;;;;5070398;28;19925;-92
2021/07/14 13:25:03;;;;;;;;;;;22.70;99.90;;;;;;5053273;28;19920;-92
2021/07/14 13:27:34;;;;;;;;;;;22.70;99.90;;;;;;5070425;28;19925;-91
2021/07/14 13:30:16;;;;;;;;;;;22.70;99.90;;;;;;5049834;28;19960;-92
2021/07/14 13:33:04;;;;;;;;;;;22.70;99.90;;;;;;5063862;28;19928;-92
2021/07/14 13:35:35;;;;;;;;;;;22.70;99.90;;;;;;5070461;28;20333;-92
2021/07/14 13:38:00;;;;;;;;;;;22.80;99.90;;;;;;5069673;28;19924;-92
2021/07/14 13:40:30;;;;;;;;;;;22.80;99.90;;;;;;5053793;28;19928;-92
2021/07/14 13:43:00;;;;;;;;;;;22.80;99.90;;;;;;5069550;28;20011;-92
2021/07/14 13:45:33;;;;;;;;;;;22.90;99.90;;;;;;5070022;28;19998;-92
2021/07/14 13:47:59;;;;;;;;;;;22.90;99.90;;;;;;5069537;28;19927;-92
2021/07/14 13:50:25;;;;;;;;;;;23.00;99.90;;;;;;5070106;28;19926;-92
2021/07/14 13:52:55;;;;;;;;;;;23.00;99.90;;;;;;5051816;28;20358;-91
2021/07/14 13:55:20;;;;;;;;;;;23.00;99.90;;;;;;5069594;28;19974;-92
2021/07/14 13:57:46;;;;;;;;;;;23.10;99.90;;;;;;5069956;28;19928;-92
2021/07/14 14:00:13;;;;;;;;;;;23.10;99.90;;;;;;5053227;28;20450;-91
2021/07/14 14:02:39;;;;;;;;;;;23.10;99.90;;;;;;5069714;28;19929;-92
2021/07/14 14:05:05;;;;;;;;;;;23.10;99.90;;;;;;5069810;28;19931;-93
2021/07/14 14:07:32;;;;;;;;;;;23.10;99.90;;;;;;5069960;28;20054;-92
2021/07/14 14:10:01;;;;;;;;;;;23.10;99.90;;;;;;5069369;28;19928;-92
2021/07/14 14:12:28;;;;;;;;;;;23.10;99.90;;;;;;5066216;28;19929;-92
2021/07/14 14:14:54;;;;;;;;;;;23.00;99.90;;;;;;5049772;28;19963;-92
2021/07/14 14:17:21;;;;;;;;;;;23.00;99.90;;;;;;5050509;28;20344;-92
2021/07/14 14:19:47;;;;;;;;;;;23.00;99.90;;;;;;5049059;28;19929;-93
2021/07/14 14:22:14;;;;;;;;;;;23.10;99.90;;;;;;5049393;28;19932;-91
2021/07/14 14:24:40;;;;;;;;;;;23.10;99.90;;;;;;5068881;28;19931;-92
2021/07/14 14:27:08;;;;;;;;;;;23.20;99.90;;;;;;5069261;28;19917;-92
2021/07/14 14:29:35;;;;;;;;;;;23.20;99.90;;;;;;5050058;28;20347;-92